createdAt,value
2022-11-16T00:02:14.101Z,95.13
2022-11-16T00:04:41.935Z,95.61
2022-11-16T00:07:09.302Z,96.23
2022-11-16T00:09:36.877Z,95.76
2022-11-16T00:12:07.629Z,95.74
2022-11-16T00:14:36.217Z,95.71
2022-11-16T00:17:04.276Z,95.14
2022-11-16T00:19:31.657Z,95.07
2022-11-16T00:21:59.077Z,94.90
2022-11-16T00:24:26.194Z,95.35
2022-11-16T00:26:55.047Z,95.51
2022-11-16T00:29:25.950Z,95.11
2022-11-16T00:31:53.944Z,94.92
2022-11-16T00:34:22.489Z,95.23
2022-11-16T00:36:50.573Z,95.24
2022-11-16T00:39:19.203Z,94.99
2022-11-16T00:41:47.735Z,94.93
2022-11-16T00:44:15.086Z,95.14
2022-11-16T00:46:42.512Z,95.23
2022-11-16T00:49:09.851Z,94.80
2022-11-16T00:51:37.841Z,94.96
2022-11-16T00:54:07.973Z,95.54
2022-11-16T00:56:37.242Z,95.15
2022-11-16T00:59:05.719Z,95.23
2022-11-16T01:01:33.254Z,95.03
2022-11-16T01:04:00.425Z,95.08
2022-11-16T01:06:27.350Z,94.73
2022-11-16T01:08:54.290Z,94.76
2022-11-16T01:11:42.586Z,95.11
2022-11-16T01:14:10.875Z,94.79
2022-11-16T01:16:37.985Z,94.45
2022-11-16T01:19:05.767Z,94.37
2022-11-16T01:21:33.993Z,95.06
2022-11-16T01:24:01.299Z,95.21
2022-11-16T01:26:28.282Z,94.58
2022-11-16T01:28:55.899Z,94.37
2022-11-16T01:31:23.093Z,94.70
2022-11-16T01:33:51.767Z,95.09
2022-11-16T01:36:24.754Z,94.75
2022-11-16T01:38:53.109Z,94.77
2022-11-16T01:41:26.008Z,93.97
2022-11-16T01:44:04.327Z,94.11
2022-11-16T01:46:37.816Z,94.70
2022-11-16T01:49:12.228Z,94.53
2022-11-16T01:51:42.754Z,94.94
2022-11-16T01:54:13.163Z,94.03
2022-11-16T01:56:52.194Z,94.61
2022-11-16T01:59:30.184Z,93.84
2022-11-16T02:02:02.673Z,93.88
2022-11-16T02:04:30.350Z,93.59
2022-11-16T02:07:18.745Z,94.22
2022-11-16T02:10:20.819Z,94.97
2022-11-16T02:13:00.992Z,94.60
2022-11-16T02:15:46.224Z,94.86
2022-11-16T02:18:55.188Z,95.04
2022-11-16T02:21:43.247Z,94.83
2022-11-16T02:24:45.810Z,94.87
2022-11-16T02:27:57.738Z,94.76
2022-11-16T02:30:25.192Z,94.32
2022-11-16T02:33:08.244Z,94.42
2022-11-16T02:35:50.954Z,94.76
2022-11-16T02:38:24.074Z,94.48
2022-11-16T02:40:58.915Z,93.71
2022-11-16T02:43:53.900Z,94.76
2022-11-16T02:46:37.276Z,94.04
2022-11-16T02:49:15.401Z,94.33
2022-11-16T02:51:43.108Z,94.54
2022-11-16T02:54:16.196Z,94.61
2022-11-16T02:57:28.971Z,94.59
2022-11-16T02:59:59.166Z,94.54
2022-11-16T03:02:29.972Z,95.02
2022-11-16T03:05:07.286Z,94.69
2022-11-16T03:08:05.317Z,94.73
2022-11-16T03:10:57.792Z,94.42
2022-11-16T03:13:30.168Z,95.00
2022-11-16T03:16:03.389Z,94.68
2022-11-16T03:18:31.849Z,94.30
2022-11-16T03:21:15.406Z,94.42
2022-11-16T03:23:45.826Z,94.65
2022-11-16T03:26:19.418Z,94.31
2022-11-16T03:29:03.077Z,94.47
2022-11-16T03:31:39.317Z,94.31
2022-11-16T03:34:12.686Z,94.82
2022-11-16T03:36:43.022Z,94.06
2022-11-16T03:39:33.503Z,94.80
2022-11-16T03:42:07.603Z,95.26
2022-11-16T03:44:35.699Z,95.06
2022-11-16T03:47:05.682Z,95.31
2022-11-16T03:49:32.831Z,95.05
2022-11-16T03:51:59.993Z,94.99
2022-11-16T03:54:29.022Z,94.60
2022-11-16T03:56:55.891Z,94.24
2022-11-16T03:59:23.297Z,93.98
2022-11-16T04:01:50.332Z,94.92
2022-11-16T04:04:35.761Z,94.41
2022-11-16T04:07:22.709Z,94.91
2022-11-16T04:10:08.501Z,94.20
2022-11-16T04:12:53.940Z,94.73
2022-11-16T04:15:39.395Z,94.12
2022-11-16T04:18:27.226Z,94.69
2022-11-16T04:21:13.388Z,94.68
2022-11-16T04:23:59.307Z,94.80
2022-11-16T04:26:45.868Z,94.93
2022-11-16T04:29:14.082Z,95.00
2022-11-16T04:31:59.612Z,95.48
2022-11-16T04:34:46.341Z,94.82
2022-11-16T04:37:36.922Z,94.82
2022-11-16T04:40:06.019Z,94.82
2022-11-16T04:42:32.961Z,94.75
2022-11-16T04:45:18.384Z,94.90
2022-11-16T04:47:52.123Z,95.00
2022-11-16T04:50:21.810Z,95.36
2022-11-16T04:52:50.246Z,94.96
2022-11-16T04:55:17.486Z,95.24
2022-11-16T04:57:46.238Z,94.49
2022-11-16T05:00:14.552Z,94.64
2022-11-16T05:02:41.720Z,94.86
2022-11-16T05:05:09.320Z,94.35
2022-11-16T05:07:40.312Z,95.37
2022-11-16T05:10:14.249Z,94.62
2022-11-16T05:12:41.836Z,94.88
2022-11-16T05:15:10.656Z,94.82
2022-11-16T05:17:37.675Z,95.56
2022-11-16T05:20:29.322Z,94.87
2022-11-16T05:23:01.832Z,94.46
2022-11-16T05:25:36.691Z,95.13
2022-11-16T05:28:06.976Z,95.43
2022-11-16T05:30:38.133Z,95.16
2022-11-16T05:33:05.253Z,95.24
2022-11-16T05:35:36.363Z,95.82
2022-11-16T05:38:03.377Z,94.96
2022-11-16T05:40:34.403Z,95.71
2022-11-16T05:43:01.671Z,95.36
2022-11-16T05:45:32.927Z,95.07
2022-11-16T05:48:01.122Z,95.13
2022-11-16T05:50:28.620Z,95.29
2022-11-16T05:53:11.652Z,95.83
2022-11-16T05:55:39.273Z,95.57
2022-11-16T05:58:07.936Z,95.68
2022-11-16T06:00:35.947Z,95.52
2022-11-16T06:03:04.263Z,95.77
2022-11-16T06:05:40.288Z,95.83
2022-11-16T06:08:08.818Z,95.26
2022-11-16T06:10:37.123Z,96.12
2022-11-16T06:13:05.528Z,95.76
2022-11-16T06:15:38.374Z,95.05
2022-11-16T06:18:07.240Z,95.98
2022-11-16T06:20:35.091Z,95.41
2022-11-16T06:23:02.660Z,95.76
2022-11-16T06:25:30.911Z,95.68
2022-11-16T06:28:00.480Z,95.54
2022-11-16T06:30:31.468Z,95.96
2022-11-16T06:32:58.392Z,95.48
2022-11-16T06:35:25.565Z,95.51
2022-11-16T06:37:53.310Z,95.91
2022-11-16T06:40:21.804Z,96.02
2022-11-16T06:42:49.654Z,95.40
2022-11-16T06:45:17.729Z,96.14
2022-11-16T06:47:50.192Z,96.25
2022-11-16T06:50:21.271Z,95.74
2022-11-16T06:52:49.805Z,95.76
2022-11-16T06:55:19.603Z,95.89
2022-11-16T06:57:48.044Z,95.43
2022-11-16T07:00:17.578Z,94.82
2022-11-16T07:02:46.260Z,94.70
2022-11-16T07:05:17.315Z,95.21
2022-11-16T07:07:46.268Z,95.13
2022-11-16T07:10:13.948Z,95.77
2022-11-16T07:12:42.440Z,96.06
2022-11-16T07:15:10.206Z,95.82
2022-11-16T07:17:40.358Z,95.70
2022-11-16T07:20:08.849Z,95.91
2022-11-16T07:22:36.383Z,95.29
2022-11-16T07:25:04.117Z,95.74
2022-11-16T07:27:31.142Z,95.30
2022-11-16T07:29:58.866Z,94.96
2022-11-16T07:32:45.603Z,95.06
2022-11-16T07:35:36.222Z,95.46
2022-11-16T07:38:03.324Z,95.88
2022-11-16T07:40:31.203Z,95.10
2022-11-16T07:42:59.268Z,94.92
2022-11-16T07:45:27.354Z,95.00
2022-11-16T07:47:58.774Z,95.50
2022-11-16T07:50:46.109Z,95.43
2022-11-16T07:53:13.131Z,94.76
2022-11-16T07:55:40.362Z,94.90
2022-11-16T07:58:08.108Z,95.43
2022-11-16T08:00:35.502Z,95.43
2022-11-16T08:03:11.844Z,95.10
2022-11-16T08:05:39.007Z,95.56
2022-11-16T08:08:06.413Z,95.25
2022-11-16T08:10:36.695Z,94.36
2022-11-16T08:13:04.528Z,94.67
2022-11-16T08:15:32.511Z,94.74
2022-11-16T08:18:03.002Z,94.71
2022-11-16T08:20:31.365Z,94.98
2022-11-16T08:23:00.904Z,94.95
2022-11-16T08:25:31.009Z,95.25
2022-11-16T08:27:58.061Z,95.61
2022-11-16T08:30:25.260Z,95.24
2022-11-16T08:32:53.502Z,95.19
2022-11-16T08:35:21.831Z,95.61
2022-11-16T08:37:49.594Z,95.09
2022-11-16T08:40:23.551Z,95.14
2022-11-16T08:42:52.699Z,95.96
2022-11-16T08:45:19.730Z,95.74
2022-11-16T08:47:46.759Z,95.83
2022-11-16T08:50:14.150Z,94.93
2022-11-16T08:52:41.245Z,95.71
2022-11-16T08:55:08.844Z,95.06
2022-11-16T08:57:36.449Z,95.13
2022-11-16T09:00:08.888Z,94.82
2022-11-16T09:02:35.814Z,95.35
2022-11-16T09:05:03.972Z,95.34
2022-11-16T09:07:31.590Z,95.74
2022-11-16T09:09:59.206Z,95.56
2022-11-16T09:12:26.552Z,95.84
2022-11-16T09:14:53.490Z,95.49
2022-11-16T09:17:23.244Z,95.83
2022-11-16T09:19:50.458Z,96.08
2022-11-16T09:22:17.452Z,95.21
2022-11-16T09:24:44.386Z,95.73
2022-11-16T09:27:11.491Z,95.31
2022-11-16T09:29:38.385Z,95.43
2022-11-16T09:32:05.509Z,95.20
2022-11-16T09:34:34.703Z,96.14
2022-11-16T09:37:02.249Z,95.32
2022-11-16T09:39:32.585Z,95.68
2022-11-16T09:42:51.756Z,95.81
2022-11-16T09:45:32.254Z,96.00
2022-11-16T09:48:04.137Z,95.86
2022-11-16T09:50:53.597Z,95.43
2022-11-16T09:53:24.521Z,96.13
2022-11-16T09:55:59.067Z,96.08
2022-11-16T09:58:41.830Z,95.67
2022-11-16T10:01:31.717Z,96.19
2022-11-16T10:04:13.481Z,96.20
2022-11-16T10:06:51.875Z,94.92
2022-11-16T10:09:20.604Z,95.18
2022-11-16T10:12:02.962Z,95.85
2022-11-16T10:15:15.950Z,95.15
2022-11-16T10:18:17.610Z,95.51
2022-11-16T10:21:13.560Z,96.63
2022-11-16T10:24:02.932Z,95.86
2022-11-16T10:26:59.191Z,95.75
2022-11-16T10:29:43.205Z,96.06
2022-11-16T10:32:29.020Z,96.02
2022-11-16T10:35:11.988Z,96.55
2022-11-16T10:37:49.152Z,95.98
2022-11-16T10:40:31.044Z,96.38
2022-11-16T10:43:17.942Z,95.47
2022-11-16T10:46:00.414Z,96.00
2022-11-16T10:48:52.170Z,96.57
2022-11-16T10:51:19.564Z,95.65
2022-11-16T10:53:47.049Z,95.85
2022-11-16T10:56:25.243Z,95.36
2022-11-16T10:58:59.878Z,96.23
2022-11-16T11:01:38.216Z,95.35
2022-11-16T11:04:20.606Z,95.71
2022-11-16T11:06:53.528Z,95.81
2022-11-16T11:09:36.995Z,95.30
2022-11-16T11:12:36.058Z,94.64
2022-11-16T11:15:25.913Z,94.54
2022-11-16T11:18:25.925Z,95.17
2022-11-16T11:21:19.316Z,95.19
2022-11-16T11:23:54.264Z,94.95
2022-11-16T11:26:39.794Z,94.51
2022-11-16T11:29:30.610Z,95.27
2022-11-16T11:32:06.954Z,95.03
2022-11-16T11:34:47.513Z,95.15
2022-11-16T11:37:27.882Z,94.77
2022-11-16T11:40:11.042Z,93.40
2022-11-16T11:42:52.124Z,94.67
2022-11-16T11:45:22.499Z,94.35
2022-11-16T11:48:01.249Z,94.83
2022-11-16T11:50:53.993Z,94.85
2022-11-16T11:53:23.888Z,95.54
2022-11-16T11:56:00.586Z,94.60
2022-11-16T11:58:35.840Z,94.10
2022-11-16T12:01:27.465Z,93.49
2022-11-16T12:04:31.842Z,93.47
2022-11-16T12:07:25.511Z,93.47
2022-11-16T12:10:10.495Z,94.25
2022-11-16T12:13:01.651Z,93.33
2022-11-16T12:15:51.820Z,93.12
2022-11-16T12:18:45.817Z,93.17
2022-11-16T12:21:31.927Z,93.22
2022-11-16T12:24:28.210Z,92.68
2022-11-16T12:27:47.433Z,93.17
2022-11-16T12:30:21.782Z,93.12
2022-11-16T12:33:16.067Z,92.84
2022-11-16T12:36:02.321Z,93.05
2022-11-16T12:39:24.617Z,93.28
2022-11-16T12:42:33.075Z,92.98
2022-11-16T12:45:44.599Z,92.28
2022-11-16T12:48:19.335Z,92.83
2022-11-16T12:51:26.387Z,92.44
2022-11-16T12:54:34.641Z,93.39
2022-11-16T12:57:25.952Z,92.72
2022-11-16T13:00:12.770Z,91.99
2022-11-16T13:02:57.992Z,92.07
2022-11-16T13:05:49.220Z,92.24
2022-11-16T13:08:40.669Z,92.83
2022-11-16T13:11:23.633Z,92.34
2022-11-16T13:13:57.291Z,93.56
2022-11-16T13:16:25.421Z,92.76
2022-11-16T13:18:54.466Z,93.23
2022-11-16T13:21:30.371Z,92.96
2022-11-16T13:24:23.779Z,92.60
2022-11-16T13:26:53.601Z,92.18
2022-11-16T13:29:39.878Z,92.40
2022-11-16T13:32:15.861Z,92.86
2022-11-16T13:34:43.653Z,92.96
2022-11-16T13:37:38.545Z,93.30
2022-11-16T13:40:05.537Z,92.42
2022-11-16T13:42:38.302Z,92.36
2022-11-16T13:45:22.749Z,92.36
2022-11-16T13:47:51.792Z,92.45
2022-11-16T13:50:33.107Z,92.43
2022-11-16T13:56:07.455Z,91.92
2022-11-16T13:58:38.098Z,92.16
2022-11-16T14:01:10.667Z,92.19
2022-11-16T14:03:46.140Z,91.42
2022-11-16T14:06:12.988Z,90.87
2022-11-16T14:08:39.867Z,92.19
2022-11-16T14:11:39.825Z,91.89
2022-11-16T14:14:11.525Z,91.57
2022-11-16T14:16:50.070Z,91.16
2022-11-16T14:19:49.321Z,92.38
2022-11-16T14:22:31.337Z,91.86
2022-11-16T14:25:09.212Z,91.11
2022-11-16T14:27:59.771Z,92.23
2022-11-16T14:30:49.004Z,91.97
2022-11-16T14:33:31.401Z,90.50
2022-11-16T14:35:59.776Z,91.15
2022-11-16T14:38:34.842Z,90.87
2022-11-16T14:41:06.830Z,90.48
2022-11-16T14:43:43.689Z,90.74
2022-11-16T14:46:30.565Z,90.80
2022-11-16T14:49:01.470Z,90.44
2022-11-16T14:51:44.284Z,90.56
2022-11-16T14:54:28.592Z,90.88
2022-11-16T14:57:01.198Z,90.80
2022-11-16T14:59:30.552Z,91.14
2022-11-16T15:02:02.632Z,90.61
2022-11-16T15:04:30.761Z,90.76
2022-11-16T15:07:06.615Z,90.76
2022-11-16T15:09:42.019Z,91.31
2022-11-16T15:12:41.665Z,90.39
2022-11-16T15:15:16.999Z,90.44
2022-11-16T15:18:03.783Z,91.20
2022-11-16T15:20:34.072Z,91.39
2022-11-16T15:23:03.934Z,90.93
2022-11-16T15:25:45.797Z,90.19
2022-11-16T15:28:28.883Z,90.71
2022-11-16T15:30:58.359Z,90.37
2022-11-16T15:33:33.403Z,90.98
2022-11-16T15:36:00.754Z,90.85
2022-11-16T15:38:33.121Z,91.37
2022-11-16T15:41:03.658Z,90.25
2022-11-16T15:44:11.742Z,91.09
2022-11-16T15:46:35.457Z,91.31
2022-11-16T15:49:02.981Z,90.99
2022-11-16T15:51:31.234Z,91.20
2022-11-16T15:54:53.670Z,90.68
2022-11-16T15:57:23.255Z,90.88
2022-11-16T15:59:57.316Z,90.64
2022-11-16T16:02:30.457Z,90.14
2022-11-16T16:04:57.478Z,90.09
2022-11-16T16:07:42.511Z,91.35
2022-11-16T16:10:27.543Z,90.04
2022-11-16T16:12:57.681Z,90.34
2022-11-16T16:15:34.051Z,90.53
2022-11-16T16:18:03.240Z,90.54
2022-11-16T16:20:32.468Z,91.05
2022-11-16T16:23:28.623Z,90.73
2022-11-16T16:25:55.560Z,91.20
2022-11-16T16:28:22.403Z,90.19
2022-11-16T16:30:51.461Z,90.10
2022-11-16T16:33:22.842Z,89.84
2022-11-16T16:35:50.976Z,91.33
2022-11-16T16:38:17.956Z,90.54
2022-11-16T16:40:44.902Z,90.88
2022-11-16T16:43:11.770Z,90.67
2022-11-16T16:45:41.923Z,90.31
2022-11-16T16:48:09.701Z,90.76
2022-11-16T16:50:37.493Z,90.84
2022-11-16T16:53:05.081Z,90.30
2022-11-16T16:55:37.049Z,89.93
2022-11-16T16:58:05.148Z,90.84
2022-11-16T17:00:32.733Z,90.44
2022-11-16T17:02:59.722Z,89.88
2022-11-16T17:05:26.990Z,90.46
2022-11-16T17:07:57.011Z,90.05
2022-11-16T17:10:24.509Z,90.51
2022-11-16T17:12:56.264Z,90.64
2022-11-16T17:15:23.912Z,90.34
2022-11-16T17:17:50.938Z,90.54
2022-11-16T17:20:19.271Z,89.94
2022-11-16T17:22:46.769Z,89.73
2022-11-16T17:25:14.916Z,90.11
2022-11-16T17:27:41.866Z,90.25
2022-11-16T17:30:10.019Z,89.44
2022-11-16T17:32:37.068Z,89.41
2022-11-16T17:35:04.247Z,90.47
2022-11-16T17:37:32.088Z,89.74
2022-11-16T17:39:59.402Z,89.96
2022-11-16T17:42:26.285Z,90.51
2022-11-16T17:44:53.950Z,89.94
2022-11-16T17:47:20.901Z,90.18
2022-11-16T17:49:47.879Z,90.14
2022-11-16T17:52:14.773Z,90.38
2022-11-16T17:54:41.742Z,89.72
2022-11-16T17:57:09.096Z,89.57
2022-11-16T17:59:36.063Z,89.40
2022-11-16T18:02:03.041Z,89.49
2022-11-16T18:04:30.066Z,89.74
2022-11-16T18:06:57.195Z,89.67
2022-11-16T18:09:24.331Z,90.41
2022-11-16T18:11:51.233Z,90.11
2022-11-16T18:14:18.238Z,89.25
2022-11-16T18:16:47.829Z,90.29
2022-11-16T18:19:17.753Z,90.16
2022-11-16T18:21:45.893Z,89.57
2022-11-16T18:24:13.833Z,89.61
2022-11-16T18:26:41.613Z,90.01
2022-11-16T18:29:12.806Z,89.46
2022-11-16T18:31:40.715Z,89.35
2022-11-16T18:34:08.038Z,88.96
2022-11-16T18:36:35.012Z,89.47
2022-11-16T18:39:01.966Z,89.11
2022-11-16T18:41:30.390Z,88.95
2022-11-16T18:44:02.108Z,88.64
2022-11-16T18:46:32.944Z,88.28
2022-11-16T18:49:00.242Z,88.08
2022-11-16T18:51:29.111Z,87.26
2022-11-16T18:53:56.878Z,88.22
2022-11-16T18:56:25.007Z,88.40
2022-11-16T18:58:53.157Z,87.12
2022-11-16T19:01:24.663Z,87.96
2022-11-16T19:03:53.275Z,87.96
2022-11-16T19:06:21.230Z,87.83
2022-11-16T19:08:56.392Z,86.92
2022-11-16T19:11:24.478Z,87.63
2022-11-16T19:13:55.779Z,87.18
2022-11-16T19:16:25.364Z,87.81
2022-11-16T19:18:53.226Z,87.96
2022-11-16T19:21:22.057Z,87.62
2022-11-16T19:23:52.826Z,87.33
2022-11-16T19:26:27.760Z,87.47
2022-11-16T19:28:55.102Z,87.06
2022-11-16T19:31:27.433Z,87.80
2022-11-16T19:34:04.943Z,87.22
2022-11-16T19:36:35.005Z,87.56
2022-11-16T19:39:02.564Z,86.92
2022-11-16T19:41:29.685Z,86.84
2022-11-16T19:44:00.220Z,87.81
2022-11-16T19:46:30.019Z,87.34
2022-11-16T19:48:58.248Z,87.34
2022-11-16T19:51:31.830Z,86.88
2022-11-16T19:54:01.170Z,86.79
2022-11-16T19:56:28.692Z,87.16
2022-11-16T19:58:56.116Z,87.02
2022-11-16T20:01:27.989Z,87.11
2022-11-16T20:03:58.154Z,86.43
2022-11-16T20:06:29.319Z,86.06
2022-11-16T20:09:00.934Z,86.07
2022-11-16T20:11:31.223Z,85.97
2022-11-16T20:13:58.741Z,85.96
2022-11-16T20:16:33.925Z,86.45
2022-11-16T20:19:04.933Z,86.59
2022-11-16T20:21:41.300Z,86.41
2022-11-16T20:24:15.077Z,86.31
2022-11-16T20:26:45.985Z,85.45
2022-11-16T20:29:15.292Z,86.26
2022-11-16T20:31:45.473Z,86.18
2022-11-16T20:34:15.609Z,86.12
2022-11-16T20:36:46.166Z,85.85
2022-11-16T20:39:15.495Z,86.18
2022-11-16T20:41:43.924Z,85.32
2022-11-16T20:44:16.533Z,86.21
2022-11-16T20:46:45.241Z,85.25
2022-11-16T20:49:13.139Z,85.44
2022-11-16T20:51:40.353Z,85.14
2022-11-16T20:54:08.069Z,85.72
2022-11-16T20:56:35.412Z,85.12
2022-11-16T20:59:02.944Z,84.91
2022-11-16T21:01:31.979Z,85.16
2022-11-16T21:04:05.348Z,85.05
2022-11-16T21:06:33.313Z,85.83
2022-11-16T21:09:00.797Z,85.84
2022-11-16T21:11:30.810Z,85.16
2022-11-16T21:14:16.235Z,85.58
2022-11-16T21:16:44.386Z,85.69
2022-11-16T21:19:12.730Z,85.70
2022-11-16T21:21:40.882Z,85.71
2022-11-16T21:24:09.255Z,84.72
2022-11-16T21:26:37.387Z,84.62
2022-11-16T21:29:05.498Z,85.25
2022-11-16T21:31:36.281Z,85.29
2022-11-16T21:34:03.781Z,85.59
2022-11-16T21:36:32.934Z,85.67
2022-11-16T21:39:00.287Z,85.72
2022-11-16T21:41:28.259Z,84.99
2022-11-16T21:43:55.510Z,84.52
2022-11-16T21:46:25.889Z,84.97
2022-11-16T21:48:55.475Z,84.85
2022-11-16T21:51:26.225Z,84.82
2022-11-16T21:53:53.600Z,84.59
2022-11-16T21:56:23.885Z,84.48
2022-11-16T21:58:55.341Z,84.32
2022-11-16T22:01:24.021Z,85.03
2022-11-16T22:04:11.209Z,84.86
2022-11-16T22:06:56.700Z,84.35
2022-11-16T22:09:23.796Z,84.84
2022-11-16T22:11:50.789Z,84.73
2022-11-16T22:14:17.824Z,84.75
2022-11-16T22:16:44.931Z,84.73
2022-11-16T22:19:11.895Z,84.27
2022-11-16T22:21:38.853Z,84.28
2022-11-16T22:24:06.380Z,84.29
2022-11-16T22:26:33.813Z,84.12
2022-11-16T22:29:00.890Z,84.61
2022-11-16T22:31:28.246Z,84.00
2022-11-16T22:33:55.531Z,83.87
2022-11-16T22:36:22.446Z,83.98
2022-11-16T22:38:49.405Z,84.48
2022-11-16T22:41:16.353Z,84.67
2022-11-16T22:43:43.315Z,84.36
2022-11-16T22:46:11.094Z,83.99
2022-11-16T22:48:40.288Z,83.83
2022-11-16T22:51:18.736Z,83.70
2022-11-16T22:53:46.201Z,83.94
2022-11-16T22:56:14.147Z,83.73
2022-11-16T22:58:41.382Z,83.69
2022-11-16T23:01:09.695Z,83.62
2022-11-16T23:03:37.781Z,83.80
2022-11-16T23:06:06.577Z,83.60
2022-11-16T23:08:35.231Z,83.53
2022-11-16T23:11:23.505Z,82.77
2022-11-16T23:14:11.028Z,83.53
2022-11-16T23:16:39.247Z,83.36
2022-11-16T23:19:26.130Z,82.87
2022-11-16T23:22:11.657Z,83.36
2022-11-16T23:24:57.690Z,83.05
2022-11-16T23:27:31.252Z,82.90
2022-11-16T23:30:10.776Z,83.13
2022-11-16T23:32:39.349Z,82.67
2022-11-16T23:35:06.638Z,83.22
2022-11-16T23:37:33.652Z,84.00
2022-11-16T23:40:00.718Z,83.86
2022-11-16T23:42:46.149Z,83.61
2022-11-16T23:45:13.218Z,83.81
2022-11-16T23:47:40.243Z,84.07
2022-11-16T23:50:07.625Z,83.98
2022-11-16T23:52:34.552Z,83.89
2022-11-16T23:55:01.522Z,83.93
2022-11-16T23:57:28.493Z,84.09
2022-11-16T23:59:55.481Z,83.54
